Latest Coastal Weather Observations for Newcastle Nobbys

IDN60701

Issued at 4:25 pm EST Monday 28 July 2014 (issued every 10 minutes, with the page automatically refreshed every 10 minutes)

About coastal observations | Map of coastal stations | Coastal observations for NSW | Marine services | Other Formats
Station Details ID: 061055 Name: NEWCASTLE NOBBYS SIGNAL STATION AWS Lat: -32.92 Lon: 151.80 Height: 33.0 m
Data from the previous 72 hours. | See also: Recent months at Newcastle Nobbys
Date/Time
EST
Temp

°C
Wind Pressure Rain
since 9am
mm
Weather Cloud Vis
km
Sea
Height
m
Swell
Dir
 
Speed
knots
Gust
knots
hPa Trend Height
m
Period
s
Dir
28/04:00pm 18.1 NW 11 17 - - 0.0 - - - - - - -
28/03:30pm 18.7 NW 13 19 - - 0.0 - - - - - - -
28/03:00pm 19.1 NW 14 19 - - 0.0 - - - - - - -
28/02:30pm 19.0 WNW 11 16 - - 0.0 - - - - - - -
28/02:00pm 19.3 WNW 12 17 - - 0.0 - - - - - - -
28/01:30pm 18.2 WNW 11 15 - - 0.0 - - - - - - -
28/01:00pm 18.4 WNW 13 18 - - 0.0 - - - - - - -
28/12:30pm 17.7 WNW 12 16 - - 0.0 - - - - - - -
28/12:00pm 17.0 WNW 13 17 - - 0.0 - - - - - - -
28/11:30am 16.4 WNW 12 16 - - 0.0 - - - - - - -
28/11:00am 16.0 NW 12 16 - - 0.0 - - - - - - -
28/10:30am 14.8 NW 14 17 - - 0.0 - - - - - - -
28/10:00am 13.6 NW 14 18 - - 0.0 - - - - - - -
28/09:30am 12.9 NW 15 20 - - 0.0 - - - - - - -
28/09:00am 12.4 WNW 16 21 - - 0.0 - - - - - - -
28/08:30am 10.9 WNW 12 15 - - 0.0 - - - - - - -
28/08:00am 10.6 NW 12 14 - - 0.0 - - - - - - -
28/07:30am 10.0 NW 12 16 - - 0.0 - - - - - - -
28/07:00am 10.0 WNW 12 14 - - 0.0 - - - - - - -
28/06:30am 9.9 NW 12 15 - - 0.0 - - - - - - -
28/06:00am 9.9 NW 8 9 - - 0.0 - - - - - - -
28/05:30am 9.8 NW 10 12 - - 0.0 - - - - - - -
28/05:00am 9.9 NW 8 9 - - 0.0 - - - - - - -
28/04:30am 9.9 WNW 5 8 - - 0.0 - - - - - - -
28/04:00am 10.5 NW 9 11 - - 0.0 - - - - - - -
28/03:30am 10.6 WNW 5 8 - - 0.0 - - - - - - -
28/03:00am 11.0 WNW 7 10 - - 0.0 - - - - - - -
28/02:30am 11.2 WNW 6 7 - - 0.0 - - - - - - -
28/02:00am 11.3 WNW 7 9 - - 0.0 - - - - - - -
28/01:30am 11.6 NW 5 7 - - 0.0 - - - - - - -
28/01:00am 11.4 NW 7 9 - - 0.0 - - - - - - -
28/12:30am 11.6 WNW 9 11 - - 0.0 - - - - - - -
28/12:00am 10.8 WNW 7 9 - - 0.0 - - - - - - -
 
Date/Time
EST
Temp

°C
Wind Pressure Rain
since 9am
mm
Weather Cloud Vis
km
Sea
Height
m
Swell
Dir
 
Speed
knots
Gust
knots
hPa Trend Height
m
Period
s
Dir
27/11:30pm 11.0 NW 6 8 - - 0.0 - - - - - - -
27/11:00pm 11.8 NW 7 8 - - 0.0 - - - - - - -
27/10:30pm 12.4 NNW 7 9 - - 0.0 - - - - - - -
27/10:00pm 12.6 N 7 8 - - 0.0 - - - - - - -
27/09:30pm 12.5 NNW 5 6 - - 0.0 - - - - - - -
27/09:00pm 12.8 NNW 4 5 - - 0.0 - - - - - - -
27/08:30pm 13.8 NW 3 3 - - 0.0 - - - - - - -
27/08:00pm 15.4 CALM 0 2 - - 0.0 - - - - - - -
27/07:30pm 15.1 CALM 0 1 - - 0.0 - - - - - - -
27/07:00pm 15.5 CALM 0 0 - - 0.0 - - - - - - -
27/06:30pm 15.4 CALM 0 0 - - 0.0 - - - - - - -
27/06:00pm 15.4 CALM 0 1 - - 0.0 - - - - - - -
27/05:30pm 15.6 SE 1 1 - - 0.0 - - - - - - -
27/05:00pm 16.5 SSE 1 2 - - 0.0 - - - - - - -
27/04:30pm 17.0 SSE 5 6 - - 0.0 - - - - - - -
27/04:00pm 17.4 S 7 8 - - 0.0 - - - - - - -
27/03:30pm 17.3 S 9 10 - - 0.0 - - - - - - -
27/03:00pm 17.2 S 9 10 - - 0.0 - - - - - - -
27/02:30pm 16.8 S 9 11 - - 0.0 - - - - - - -
27/02:00pm 17.0 S 10 11 - - 0.0 - - - - - - -
27/01:30pm 17.0 S 9 11 - - 0.0 - - - - - - -
27/01:00pm 17.3 S 8 10 - - 0.0 - - - - - - -
27/12:30pm 17.4 SSW 7 10 - - 0.0 - - - - - - -
27/12:00pm 18.0 SW 6 10 - - 0.0 - - - - - - -
27/11:30am 17.3 SW 5 9 - - 0.0 - - - - - - -
27/11:00am 17.1 WNW 5 7 - - 0.0 - - - - - - -
27/10:30am 16.1 NW 7 10 - - 0.0 - - - - - - -
27/10:00am 14.8 WNW 9 12 - - 0.0 - - - - - - -
27/09:30am 13.5 WNW 10 13 - - 0.0 - - - - - - -
27/09:00am 12.4 WNW 9 11 - - 4.8 - - - - - - -
27/08:30am 11.3 - - - - - 4.8 - - - - - - -
27/08:00am 10.7 - - - - - 4.8 - - - - - - -
27/07:30am 9.5 - - - - - 4.8 - - - - - - -
27/07:00am 9.0 - - - - - 4.8 - - - - - - -
27/06:30am 9.2 - - - - - 4.8 - - - - - - -
27/06:00am 9.3 - - - - - 4.8 - - - - - - -
27/05:30am 9.4 - - - - - 4.8 - - - - - - -
27/05:00am 9.5 - - - - - 4.8 - - - - - - -
27/04:30am 9.6 - - - - - 4.8 - - - - - - -
27/04:00am 9.9 - - - - - 4.8 - - - - - - -
27/03:30am 9.9 - - - - - 4.8 - - - - - - -
27/03:00am 9.9 - - - - - 4.8 Recent precip. - - - - - -
27/02:30am 10.4 - - - - - 4.6 - - - - - - -
27/02:00am 10.8 - - - - - 4.6 - - - - - - -
27/01:30am 11.0 - - - - - 4.6 - - - - - - -
27/01:00am 11.7 - - - - - 4.6 - - - - - - -
27/12:30am 12.2 - - - - - 4.6 - - - - - - -
27/12:00am 12.0 - - - - - 4.6 - - - - - - -
 
Date/Time
EST
Temp

°C
Wind Pressure Rain
since 9am
mm
Weather Cloud Vis
km
Sea
Height
m
Swell
Dir
 
Speed
knots
Gust
knots
hPa Trend Height
m
Period
s
Dir
26/11:30pm 11.6 - - - - - 4.6 - - - - - - -
26/11:00pm 11.8 - - - - - 4.6 - - - - - - -
26/10:30pm 12.0 WNW 6 8 - - 4.6 - - - - - - -
26/10:00pm 12.2 WNW 6 8 - - 4.6 - - - - - - -
26/09:30pm 12.5 W 8 9 - - 4.6 - - - - - - -
26/09:00pm 12.6 WNW 9 11 - - 4.6 - - - - - - -
26/08:30pm 12.5 WNW 8 11 - - 4.6 - - - - - - -
26/08:00pm 12.6 WNW 6 8 - - 4.6 - - - - - - -
26/07:30pm 12.8 WNW 6 7 - - 4.6 - - - - - - -
26/07:00pm 12.9 NW 6 8 - - 4.6 - - - - - - -
26/06:30pm 13.0 NW 5 6 - - 4.6 - - - - - - -
26/06:00pm 13.4 NW 8 11 - - 4.6 - - - - - - -
26/05:30pm 13.9 NW 8 12 - - 4.6 - - - - - - -
26/05:00pm 14.4 WNW 9 13 - - 4.6 - - - - - - -
26/04:30pm 15.1 NW 10 13 - - 4.6 - - - - - - -
26/04:00pm 15.6 NNW 10 14 - - 4.6 - - - - - - -
26/03:30pm 14.7 NW 10 15 - - 4.6 - - - - - - -
26/03:00pm 14.6 NNW 11 14 - - 4.6 - - - - - - -
26/02:30pm 15.0 NNW 9 12 - - 4.6 - - - - - - -
26/02:00pm 15.1 NNW 8 10 - - 4.6 - - - - - - -
26/01:30pm 14.8 NNW 5 8 - - 4.6 - - - - - - -
26/01:00pm 15.4 - - - - - 4.6 - - - - - - -
26/12:30pm 14.4 - - - - - 4.6 - - - - - - -
26/12:00pm 14.2 - - - - - 2.8 Recent precip. - - - - - -
26/11:30am 14.1 - - - - - 2.8 - - - - - - -
26/11:00am 13.9 - - - - - 2.6 - - - - - - -
26/10:30am 13.8 - - - - - 2.6 - - - - - - -
26/10:00am 13.6 - - - - - 2.6 - - - - - - -
26/09:30am 13.6 - - - - - 1.4 - - - - - - -
26/09:00am 13.7 - - - - - 7.0 Rain - - - - - -
26/08:30am 13.8 - - - - - 6.6 - - - - - - -
26/08:00am 13.9 - - - - - 6.2 - - - - - - -
26/07:30am 13.8 - - - - - 6.2 - - - - - - -
26/07:00am 13.9 - - - - - 5.6 - - - - - - -
26/06:30am 13.9 - - - - - 5.2 - - - - - - -
26/06:00am 13.9 - - - - - 4.4 Rain - - - - - -
26/05:30am 13.9 - - - - - 4.2 - - - - - - -
26/05:00am 14.5 - - - - - 3.4 - - - - - - -
26/04:30am 14.6 - - - - - 2.8 - - - - - - -
26/04:00am 14.9 - - - - - 2.6 - - - - - - -
26/03:30am 15.4 - - - - - 2.4 - - - - - - -
26/03:00am 14.4 - - - - - 2.2 Rain - - - - - -
26/02:30am 14.3 - - - - - 1.0 - - - - - - -
26/02:00am 14.5 - - - - - 0.8 - - - - - - -
26/01:30am 15.6 - - - - - 0.2 - - - - - - -
26/01:00am 15.6 - - - - - 0.2 - - - - - - -
26/12:30am 16.1 - - - - - 0.2 - - - - - - -
26/12:00am 15.2 - - - - - 0.2 - - - - - - -
 
Date/Time
EST
Temp

°C
Wind Pressure Rain
since 9am
mm
Weather Cloud Vis
km
Sea
Height
m
Swell
Dir
 
Speed
knots
Gust
knots
hPa Trend Height
m
Period
s
Dir
25/11:30pm 15.2 - - - - - 0.2 - - - - - - -
25/11:00pm 15.4 - - - - - 0.2 - - - - - - -
25/10:30pm 15.1 - - - - - 0.2 - - - - - - -
25/10:00pm 15.8 - - - - - 0.2 - - - - - - -
25/09:30pm 15.8 NNE 12 14 - - 0.2 - - - - - - -
25/09:00pm 16.0 N 16 18 - - 0.2 - - - - - - -
25/08:30pm 15.7 NNE 16 19 - - 0.2 - - - - - - -
25/08:00pm 15.4 NNE 15 19 - - 0.2 - - - - - - -
25/07:30pm 15.3 N 15 18 - - 0.2 - - - - - - -
25/07:00pm 15.6 N 10 14 - - 0.0 - - - - - - -
25/06:30pm 15.9 N 14 18 - - 0.0 - - - - - - -
25/06:00pm 16.5 N 8 10 - - 0.0 - - - - - - -
25/05:30pm 17.8 WNW 12 15 - - 0.0 - - - - - - -
25/05:00pm 17.8 NW 14 17 - - 0.0 - - - - - - -
25/04:30pm 17.8 NW 16 21 - - 0.0 - - - - - - -

Other Formats:

Comma delimited format used in spreadsheet applications
http://www.bom.gov.au/fwo/IDN60701/IDN60701.94774.axf

JavaScript Object Notation format (JSON) in row-major order
http://www.bom.gov.au/fwo/IDN60701/IDN60701.94774.json